Time;durP1;ratioP1;P1;durP2;ratioP2;P2;SDS_P1;SDS_P2;PMS_P1;PMS_P2;Temp;Humidity;BMP_temperature;BMP_pressure;BME280_temperature;BME280_humidity;BME280_pressure;Samples;Min_cycle;Max_cycle;Signal;HPM_P1;HPM_P2
2022/10/23 00:01:32;;;;;;;19.83;10.90;;;19.60;90.60;;;19.47;54.11;98927.66;5046193;28;20055;-77
2022/10/23 00:04:02;;;;;;;16.02;9.73;;;19.60;90.50;;;19.48;53.91;98939.47;5039758;28;20049;-76
2022/10/23 00:06:28;;;;;;;16.58;10.13;;;19.60;90.50;;;19.47;54.16;98932.34;5062315;28;20491;-77
2022/10/23 00:08:55;;;;;;;19.48;11.38;;;19.60;90.70;;;19.44;54.46;98942.06;5033338;28;20383;-77
2022/10/23 00:11:26;;;;;;;19.15;10.68;;;19.60;90.70;;;19.49;54.31;98946.59;5060965;28;20048;-77
2022/10/23 00:13:58;;;;;;;29.38;11.80;;;19.60;90.80;;;19.48;54.14;98942.22;5050993;28;20040;-77
2022/10/23 00:16:24;;;;;;;18.45;10.45;;;19.60;90.60;;;19.48;53.96;98955.97;5046681;28;20041;-76
2022/10/23 00:18:50;;;;;;;14.52;9.18;;;19.60;90.60;;;19.46;54.21;98953.56;5061238;28;20036;-76
2022/10/23 00:21:16;;;;;;;16.83;10.52;;;19.60;90.50;;;19.47;54.16;98959.88;5049798;28;20608;-76
2022/10/23 00:23:43;;;;;;;24.05;10.65;;;19.60;90.60;;;19.46;54.28;98961.81;5048704;28;20044;-77
2022/10/23 00:26:15;;;;;;;17.00;10.15;;;19.60;90.70;;;19.47;54.44;98965.38;5045932;28;20083;-76
2022/10/23 00:28:46;;;;;;;18.50;10.15;;;19.60;90.80;;;19.45;54.02;98960.19;5038205;28;20055;-77
2022/10/23 00:31:13;;;;;;;20.27;9.98;;;19.60;90.70;;;19.47;54.22;98963.41;5037891;28;20035;-77
2022/10/23 00:33:39;;;;;;;17.02;9.57;;;19.60;90.60;;;19.48;53.77;98966.97;5036895;28;20040;-76
2022/10/23 00:36:07;;;;;;;15.05;8.00;;;19.70;90.60;;;19.50;54.07;98967.47;5044178;28;20070;-76
2022/10/23 00:38:33;;;;;;;18.05;10.10;;;19.60;90.60;;;19.45;54.16;98971.19;5044583;28;20367;-76
2022/10/23 00:40:59;;;;;;;14.75;9.45;;;19.60;90.70;;;19.49;54.46;98972.16;5044536;28;20047;-76
2022/10/23 00:43:27;;;;;;;15.88;8.85;;;19.60;90.80;;;19.47;54.42;98979.13;5060293;28;20123;-77
2022/10/23 00:45:53;;;;;;;18.10;9.65;;;19.60;90.80;;;19.47;54.25;98979.94;5034699;28;20201;-76
2022/10/23 00:48:19;;;;;;;18.45;9.77;;;19.60;90.60;;;19.48;54.17;98977.97;5071994;27;20047;-76
2022/10/23 00:50:46;;;;;;;17.55;9.95;;;19.60;90.60;;;19.47;54.19;98976.38;5081452;27;20078;-76
2022/10/23 00:53:12;;;;;;;15.10;9.45;;;19.60;90.60;;;19.48;54.09;98966.97;5078912;28;20395;-76
2022/10/23 00:55:40;;;;;;;15.63;9.05;;;19.60;90.60;;;19.48;54.24;98970.53;5062066;28;20564;-76
2022/10/23 00:58:06;;;;;;;18.80;10.65;;;19.60;90.70;;;19.48;54.52;98961.47;5066327;28;20410;-76
2022/10/23 01:00:52;;;;;;;19.42;11.50;;;19.60;90.80;;;19.46;54.43;98966.50;5066044;27;20044;-76
2022/10/23 01:03:20;;;;;;;23.35;10.23;;;19.60;90.70;;;19.47;53.97;98974.44;5081197;28;20097;-76
2022/10/23 01:06:29;;;;;;;13.70;9.18;;;19.60;90.60;;;19.46;54.05;98975.56;5071846;28;20031;-76
2022/10/23 01:08:58;;;;;;;25.10;9.68;;;19.60;90.60;;;19.47;54.22;98979.94;5082184;28;20043;-76
2022/10/23 01:11:31;;;;;;;17.75;9.65;;;19.60;90.60;;;19.48;54.39;98988.97;5080743;28;20379;-76
2022/10/23 01:14:25;;;;;;;16.52;10.23;;;19.60;90.80;;;19.45;54.70;98984.94;5062108;28;20039;-76
2022/10/23 01:17:36;;;;;;;20.45;9.98;;;19.60;90.80;;;19.46;54.58;98981.06;5066262;28;20043;-76
2022/10/23 01:20:32;;;;;;;17.80;8.93;;;19.60;90.70;;;19.45;54.26;98984.94;5081748;28;20044;-76
2022/10/23 01:23:16;;;;;;;18.98;8.70;;;19.60;90.70;;;19.46;54.42;98992.06;5102885;28;20054;-76
2022/10/23 01:26:13;;;;;;;12.90;8.77;;;19.60;90.70;;;19.46;54.11;98988.50;5103763;28;20032;-76
2022/10/23 01:28:58;;;;;;;13.48;8.00;;;19.60;90.70;;;19.47;54.64;98976.38;5103882;28;20049;-76
2022/10/23 01:31:42;;;;;;;15.68;9.60;;;19.60;90.90;;;19.47;54.69;98987.38;5063953;28;20073;-76
2022/10/23 01:34:14;;;;;;;18.13;9.75;;;19.60;90.90;;;19.46;54.62;98985.75;5069964;28;20303;-77
2022/10/23 01:36:42;;;;;;;21.23;10.43;;;19.60;90.80;;;19.48;54.51;98983.47;5067506;28;20123;-76
2022/10/23 01:39:32;;;;;;;19.67;9.82;;;19.60;90.70;;;19.45;54.26;98986.88;5068125;28;20051;-76
2022/10/23 01:42:09;;;;;;;16.65;8.88;;;19.60;90.70;;;19.46;54.74;98992.06;5065843;28;20050;-76
2022/10/23 01:44:43;;;;;;;18.73;9.23;;;19.60;90.70;;;19.47;54.50;98987.38;5071393;28;20151;-76
2022/10/23 01:47:10;;;;;;;17.13;9.32;;;19.60;90.90;;;19.47;54.72;98990.13;5073356;28;20055;-75
2022/10/23 01:49:36;;;;;;;20.42;9.93;;;19.60;90.80;;;19.46;54.59;98999.50;5069489;27;20036;-75
2022/10/23 01:52:04;;;;;;;19.02;9.18;;;19.60;90.70;;;19.46;54.47;99000.34;5085230;27;20052;-75
2022/10/23 01:54:32;;;;;;;13.23;8.48;;;19.60;90.70;;;19.47;54.49;98998.38;5076496;27;20093;-75
2022/10/23 01:56:59;;;;;;;15.90;8.75;;;19.60;90.70;;;19.47;54.49;99001.94;5055301;27;20036;-75
2022/10/23 01:59:30;;;;;;;16.75;9.55;;;19.60;90.70;;;19.46;54.87;99008.59;5067276;27;20039;-75
2022/10/23 02:01:56;;;;;;;;;;;19.60;90.90;;;19.49;54.93;99009.88;5080460;27;20039;-75
2022/10/23 02:05:00;;;;;;;14.15;8.88;;;19.60;91.00;;;19.44;54.89;99008.09;5071110;28;20676;-76
2022/10/23 02:07:26;;;;;;;15.20;9.52;;;19.60;90.90;;;19.45;54.54;99011.66;5076314;27;20093;-76
2022/10/23 02:09:52;;;;;;;17.75;8.50;;;19.60;90.80;;;19.43;54.53;99013.91;5069273;28;20036;-76
2022/10/23 02:12:35;;;;;;;16.95;9.02;;;19.60;90.80;;;19.44;54.67;99005.34;5071424;28;20040;-76
2022/10/23 02:15:31;;;;;;;12.23;7.68;;;19.60;90.80;;;19.44;54.78;99008.09;5085510;27;20043;-76
2022/10/23 02:18:28;;;;;;;13.32;7.97;;;19.60;90.90;;;19.45;54.88;99006.16;5074636;28;20036;-75
2022/10/23 02:21:09;;;;;;;15.20;9.13;;;19.60;91.00;;;19.43;55.23;99005.66;5086901;27;20048;-75
2022/10/23 02:23:40;;;;;;;;;;;19.60;91.00;;;19.42;55.03;99009.56;5070783;27;20135;-75
2022/10/23 02:26:33;;;;;;;12.68;7.18;;;19.60;90.90;;;19.42;54.77;99012.31;5082778;28;19931;-75
2022/10/23 02:29:30;;;;;;;17.73;9.32;;;19.60;90.80;;;19.43;54.53;99009.22;5080118;28;20403;-75
2022/10/23 02:31:56;;;;;;;17.77;8.93;;;19.60;90.80;;;19.44;54.93;99012.78;5073267;28;20036;-75
2022/10/23 02:34:22;;;;;;;16.60;9.00;;;19.60;91.00;;;19.43;55.41;99009.22;5083886;28;20039;-75
2022/10/23 02:36:48;;;;;;;20.05;9.48;;;19.50;91.10;;;19.42;55.16;99015.06;5088713;28;20496;-75
2022/10/23 02:39:14;;;;;;;18.00;8.45;;;19.60;91.10;;;19.41;55.01;99017.00;5081897;28;20491;-75
2022/10/23 02:42:16;;;;;;;12.45;8.27;;;19.60;90.90;;;19.40;54.83;99009.06;5081649;28;20046;-75
2022/10/23 02:44:55;;;;;;;;;;;19.50;90.80;;;19.39;54.93;99021.22;5064239;27;20409;-75
2022/10/23 02:47:44;;;;;;;14.63;8.10;;;19.50;90.80;;;19.41;55.12;99022.50;5086595;28;19924;-75
2022/10/23 02:51:04;;;;;;;12.85;8.30;;;19.50;91.00;;;19.40;55.53;99022.81;5101712;27;20047;-76
2022/10/23 02:53:59;;;;;;;11.40;8.07;;;19.50;91.10;;;19.41;55.23;99027.19;5091513;27;20522;-75
2022/10/23 02:57:05;;;;;;;11.25;7.13;;;19.50;91.00;;;19.39;55.09;99034.97;5069667;28;20659;-75
2022/10/23 02:59:35;;;;;;;14.52;8.70;;;19.50;90.90;;;19.40;55.02;99031.09;5055628;28;20056;-76
2022/10/23 03:02:08;;;;;;;13.40;7.50;;;19.50;90.90;;;19.36;54.95;99041.09;5067134;28;20042;-75
2022/10/23 03:04:34;;;;;;;15.85;8.38;;;19.50;90.90;;;19.39;55.39;99041.28;5071855;28;20277;-76
2022/10/23 03:07:00;;;;;;;11.88;7.68;;;19.50;91.20;;;19.38;55.44;99030.59;5066969;27;20050;-76
2022/10/23 03:09:26;;;;;;;14.45;8.20;;;19.50;91.20;;;19.34;55.41;99038.69;5079540;28;20035;-75
2022/10/23 03:11:52;;;;;;;14.15;8.73;;;19.50;91.10;;;19.39;55.09;99046.78;5087369;28;20393;-76
2022/10/23 03:14:18;;;;;;;12.02;7.40;;;19.50;91.00;;;19.37;55.17;99043.53;5080357;27;20043;-76
2022/10/23 03:16:45;;;;;;;13.68;7.35;;;19.50;91.00;;;19.38;54.88;99050.66;5082376;28;20048;-76
2022/10/23 03:19:11;;;;;;;14.65;9.57;;;19.50;90.90;;;19.35;55.12;99051.31;5067663;27;20442;-76
2022/10/23 03:21:37;;;;;;;13.82;7.88;;;19.50;91.00;;;19.36;55.34;99049.34;5085389;27;20126;-76
2022/10/23 03:24:03;;;;;;;15.00;9.80;;;19.50;91.10;;;19.37;55.60;99053.75;5103900;27;20159;-76
2022/10/23 03:26:30;;;;;;;11.50;7.03;;;19.50;91.20;;;19.38;55.21;99049.84;5084703;27;20047;-76
2022/10/23 03:28:55;;;;;;;12.82;7.90;;;19.50;91.10;;;19.36;55.20;99057.59;5091102;28;20071;-76
2022/10/23 03:31:22;;;;;;;11.93;7.00;;;19.50;91.00;;;19.36;55.01;99049.34;5049575;27;20114;-76
2022/10/23 03:33:47;;;;;;;13.90;7.85;;;19.50;90.90;;;19.34;55.15;99049.69;5057936;27;20040;-76
2022/10/23 03:36:14;;;;;;;13.88;7.68;;;19.50;90.90;;;19.35;55.81;99058.75;5085318;28;20043;-76
2022/10/23 03:38:40;;;;;;;17.00;8.73;;;19.40;91.10;;;19.36;55.70;99052.09;5064085;27;20043;-76
2022/10/23 03:41:06;;;;;;;9.38;6.80;;;19.40;91.20;;;19.34;55.68;99049.69;5070609;28;20066;-76
2022/10/23 03:43:32;;;;;;;14.05;7.15;;;19.40;91.20;;;19.36;55.30;99060.34;5087812;27;20040;-76
2022/10/23 03:45:58;;;;;;;11.07;7.90;;;19.40;91.00;;;19.34;55.27;99063.44;5068411;27;20050;-76
2022/10/23 03:48:24;;;;;;;13.13;7.60;;;19.50;91.00;;;19.32;55.46;99059.41;5082986;28;20040;-76
2022/10/23 03:50:50;;;;;;;9.60;7.13;;;19.50;91.00;;;19.34;55.28;99068.94;5087467;27;20046;-76
2022/10/23 03:53:16;;;;;;;12.60;7.57;;;19.40;90.90;;;19.32;55.39;99059.41;5051001;27;20039;-76
2022/10/23 03:55:43;;;;;;;13.68;8.20;;;19.40;91.00;;;19.34;54.83;99062.66;5082550;27;20394;-76
2022/10/23 03:58:09;;;;;;;10.65;6.85;;;19.50;90.80;;;19.33;54.88;99059.06;5051733;27;20126;-76
2022/10/23 04:00:35;;;;;;;11.32;7.22;;;19.40;90.70;;;19.34;54.54;99062.66;5086825;27;20043;-75
2022/10/23 04:03:01;;;;;;;11.80;7.55;;;19.50;90.60;;;19.33;54.97;99066.53;5066199;28;20046;-75
2022/10/23 04:05:27;;;;;;;8.93;6.40;;;19.50;90.90;;;19.32;55.42;99068.47;5052997;28;20048;-75
2022/10/23 04:07:53;;;;;;;9.43;6.43;;;19.40;91.00;;;19.32;55.47;99057.47;5085159;28;20103;-75
2022/10/23 04:10:21;;;;;;;9.27;6.75;;;19.40;91.00;;;19.32;54.83;99062.16;5080609;28;20035;-75
2022/10/23 04:12:47;;;;;;;10.40;6.75;;;19.40;90.80;;;19.30;54.70;99055.03;5045397;28;20409;-75
2022/10/23 04:15:13;;;;;;;9.98;6.90;;;19.40;90.70;;;19.36;53.91;99054.84;5070562;28;20040;-76
2022/10/23 04:17:39;;;;;;;7.22;5.82;;;19.40;90.60;;;19.34;54.32;99059.91;5101272;27;20478;-76
2022/10/23 04:20:08;;;;;;;10.07;6.75;;;19.40;90.60;;;19.30;54.94;99071.53;5065059;28;20054;-75
2022/10/23 04:22:35;;;;;;;8.38;6.32;;;19.40;90.90;;;19.31;54.92;99077.88;5081327;28;20101;-75
2022/10/23 04:25:01;;;;;;;10.30;6.43;;;19.40;90.90;;;19.30;54.99;99074.28;5081569;28;20115;-76
2022/10/23 04:27:27;;;;;;;8.68;6.80;;;19.40;90.90;;;19.27;54.42;99066.69;5099627;27;20040;-76
2022/10/23 04:29:53;;;;;;;10.27;6.93;;;19.40;90.70;;;19.34;54.34;99065.41;5082681;28;20545;-76
2022/10/23 04:32:19;;;;;;;6.68;5.55;;;19.40;90.60;;;19.36;53.95;99057.59;5099539;27;20048;-75
2022/10/23 04:34:45;;;;;;;8.55;5.88;;;19.40;90.60;;;19.32;54.31;99062.16;5083033;28;20052;-75
2022/10/23 04:37:11;;;;;;;8.57;6.32;;;19.40;90.60;;;19.32;54.71;99059.41;5063101;28;20085;-76
2022/10/23 04:39:37;;;;;;;11.50;6.22;;;19.40;91.00;;;19.32;55.21;99062.16;5079906;28;20046;-75
2022/10/23 04:42:03;;;;;;;10.40;6.10;;;19.40;91.00;;;19.32;54.60;99059.41;5080624;28;20047;-76
2022/10/23 04:44:29;;;;;;;8.88;6.35;;;19.40;90.80;;;19.30;54.49;99060.53;5100610;27;20376;-76
2022/10/23 04:46:55;;;;;;;9.68;6.30;;;19.40;90.60;;;19.35;54.06;99056.81;5080497;28;20050;-76
2022/10/23 04:49:21;;;;;;;8.57;6.28;;;19.40;90.60;;;19.36;54.04;99054.84;5065729;28;20032;-76
2022/10/23 04:51:47;;;;;;;8.82;6.80;;;19.40;90.60;;;19.31;54.42;99055.84;5087653;28;20042;-76
2022/10/23 04:54:13;;;;;;;11.52;6.97;;;19.40;90.80;;;19.33;54.62;99058.25;5079034;28;20043;-76
2022/10/23 04:56:39;;;;;;;12.10;6.68;;;19.40;90.90;;;19.27;55.17;99055.69;5078658;28;20040;-76
2022/10/23 04:59:05;;;;;;;8.93;5.75;;;19.40;91.00;;;19.28;54.39;99056.47;5084334;27;20039;-76
2022/10/23 05:01:31;;;;;;;9.50;6.10;;;19.40;90.70;;;19.31;54.34;99050.34;5068982;27;20118;-76
2022/10/23 05:03:57;;;;;;;6.03;5.43;;;19.40;90.60;;;19.33;53.92;99059.06;5083058;28;20408;-76
2022/10/23 05:06:23;;;;;;;6.97;5.55;;;19.40;90.60;;;19.34;54.03;99057.94;5067393;28;20087;-76
2022/10/23 05:08:50;;;;;;;7.60;6.20;;;19.40;90.60;;;19.30;54.81;99051.47;5073904;27;20039;-76
2022/10/23 05:11:16;;;;;;;8.18;6.20;;;19.40;90.90;;;19.30;54.57;99048.72;5078049;28;20058;-76
2022/10/23 05:13:43;;;;;;;8.35;5.72;;;19.40;90.90;;;19.33;54.70;99048.06;5061394;28;20039;-76
2022/10/23 05:16:09;;;;;;;8.43;6.03;;;19.40;90.80;;;19.28;54.17;99039.97;5087379;28;20044;-77
2022/10/23 05:18:45;;;;;;;8.43;5.47;;;19.40;90.60;;;19.34;54.23;99051.66;5052331;28;20036;-76
2022/10/23 05:21:21;;;;;;;6.70;5.70;;;19.40;90.60;;;19.33;53.98;99050.00;5053914;28;20052;-76
2022/10/23 05:23:47;;;;;;;9.07;5.90;;;19.40;90.60;;;19.28;54.23;99045.47;5055853;28;20123;-76
2022/10/23 05:26:13;;;;;;;7.95;5.90;;;19.40;90.60;;;19.29;54.61;99039.66;5087907;28;20099;-76
2022/10/23 05:28:39;;;;;;;6.93;5.35;;;19.40;90.90;;;19.32;54.93;99040.16;5083774;28;20039;-75
2022/10/23 05:31:05;;;;;;;5.80;4.63;;;19.40;90.90;;;19.30;54.12;99045.97;5068860;28;20085;-76
2022/10/23 05:33:31;;;;;;;7.05;5.28;;;19.40;90.60;;;19.33;54.18;99050.81;5063948;28;20084;-76
2022/10/23 05:35:57;;;;;;;6.70;5.65;;;19.40;90.50;;;19.37;53.98;99048.25;5039090;28;20032;-78
2022/10/23 05:38:23;;;;;;;7.05;4.82;;;19.40;90.60;;;19.32;53.86;99046.47;5066298;28;20614;-76
2022/10/23 05:40:51;;;;;;;8.63;5.15;;;19.40;90.50;;;19.32;54.18;99043.72;5080417;28;20501;-76
2022/10/23 05:43:17;;;;;;;7.50;5.30;;;19.40;90.70;;;19.32;54.35;99042.91;5063029;28;20032;-76
2022/10/23 05:45:43;;;;;;;8.45;5.50;;;19.40;90.70;;;19.30;54.49;99046.78;5063690;28;20096;-76
2022/10/23 05:48:09;;;;;;;6.85;5.32;;;19.40;90.80;;;19.29;54.33;99047.91;5100005;28;20059;-77
2022/10/23 05:50:36;;;;;;;7.95;5.63;;;19.40;90.60;;;19.33;54.22;99047.25;5048558;28;20384;-76
2022/10/23 05:53:02;;;;;;;6.38;5.20;;;19.40;90.60;;;19.34;54.11;99046.94;5066771;28;20046;-76
2022/10/23 05:55:28;;;;;;;7.90;5.93;;;19.40;90.60;;;19.33;54.12;99041.75;5066385;28;20230;-76
2022/10/23 05:57:54;;;;;;;8.98;5.45;;;19.40;90.50;;;19.33;53.80;99047.25;5079632;28;20505;-76
2022/10/23 06:00:21;;;;;;;7.65;5.40;;;19.40;90.50;;;19.34;53.97;99046.16;5081818;28;20047;-76
2022/10/23 06:02:47;;;;;;;7.53;5.20;;;19.40;90.40;;;19.35;54.20;99048.56;5057769;28;20042;-76
2022/10/23 06:05:13;;;;;;;6.22;4.95;;;19.50;90.60;;;19.36;54.42;99055.69;5079909;28;20777;-76
2022/10/23 06:07:39;;;;;;;5.72;5.13;;;19.50;90.70;;;19.40;54.34;99050.34;5096128;28;20043;-76
2022/10/23 06:10:05;;;;;;;7.45;5.38;;;19.50;90.80;;;19.40;54.09;99055.84;5097658;28;20402;-79
2022/10/23 06:12:32;;;;;;;6.03;4.85;;;19.50;90.70;;;19.42;53.99;99050.81;5057101;28;20091;-79
2022/10/23 06:14:58;;;;;;;9.20;5.18;;;19.50;90.60;;;19.42;53.98;99054.38;5069732;28;20044;-79
2022/10/23 06:17:24;;;;;;;7.13;4.65;;;19.50;90.60;;;19.42;53.86;99062.63;5057066;28;20050;-80
2022/10/23 06:19:50;;;;;;;7.50;4.80;;;19.50;90.60;;;19.45;54.20;99066.66;5052413;28;20044;-79
2022/10/23 06:22:17;;;;;;;9.20;5.90;;;19.50;90.80;;;19.47;54.43;99064.41;5049907;28;20040;-79
2022/10/23 06:24:43;;;;;;;5.35;4.75;;;19.50;90.80;;;19.48;54.06;99064.06;5090750;28;20036;-79
2022/10/23 06:27:09;;;;;;;8.77;5.10;;;19.50;90.80;;;19.50;54.05;99078.31;5082742;28;20047;-78
2022/10/23 06:29:35;;;;;;;8.68;5.10;;;19.50;90.60;;;19.51;53.88;99076.34;5084286;28;20407;-77
2022/10/23 06:32:01;;;;;;;6.03;4.75;;;19.50;90.60;;;19.52;53.95;99080.75;5064894;28;20031;-78
2022/10/23 06:34:28;;;;;;;6.72;4.55;;;19.50;90.60;;;19.54;54.02;99089.47;5072087;28;20046;-78
2022/10/23 06:36:54;;;;;;;6.70;4.88;;;19.50;90.60;;;19.55;53.96;99087.53;5075926;28;20665;-78
2022/10/23 06:39:21;;;;;;;5.05;4.45;;;19.50;90.70;;;19.54;53.99;99086.75;5088753;28;20050;-75
2022/10/23 06:41:47;;;;;;;5.72;4.43;;;19.60;90.80;;;19.57;53.91;99099.03;5068564;28;20154;-75
2022/10/23 06:44:13;;;;;;;6.35;4.95;;;19.60;90.70;;;19.58;53.86;99104.19;5100248;27;20477;-75
2022/10/23 06:46:39;;;;;;;8.32;4.95;;;19.60;90.60;;;19.59;53.80;99105.81;5065655;28;20048;-75
2022/10/23 06:49:05;;;;;;;5.70;4.93;;;19.60;90.60;;;19.57;53.80;99104.53;5100502;27;20036;-75
2022/10/23 06:51:31;;;;;;;5.50;4.20;;;19.60;90.60;;;19.57;53.78;99116.34;5083692;28;20124;-79
2022/10/23 06:53:57;;;;;;;10.38;5.05;;;19.60;90.70;;;19.57;54.60;99115.53;5080296;28;20063;-79
2022/10/23 06:56:27;;;;;;;7.90;5.00;;;19.60;90.80;;;19.57;54.25;99102.59;5051994;28;20644;-77
2022/10/23 06:58:54;;;;;;;10.35;5.05;;;19.60;90.80;;;19.52;53.90;99100.81;5085890;28;20042;-76
2022/10/23 07:01:23;;;;;;;6.15;4.05;;;19.60;90.60;;;19.51;53.68;99117.63;5064793;28;20105;-76
2022/10/23 07:03:49;;;;;;;5.93;5.18;;;19.60;90.50;;;19.51;53.63;99110.19;5053137;28;20047;-76
2022/10/23 07:06:15;;;;;;;6.05;4.95;;;19.60;90.40;;;19.46;53.61;99112.28;5069955;27;20064;-77
2022/10/23 07:08:42;;;;;;;9.52;5.85;;;19.60;90.30;;;19.46;53.41;99117.78;5067629;28;20097;-76
2022/10/23 07:11:09;;;;;;;8.50;5.68;;;19.60;90.30;;;19.50;53.16;99119.56;5051646;28;20433;-76
2022/10/23 07:13:37;;;;;;;8.02;5.13;;;19.60;90.30;;;19.52;53.22;99124.75;5068072;28;20044;-77
2022/10/23 07:16:18;;;;;;;5.55;4.80;;;19.60;90.20;;;19.51;53.17;99121.22;5082266;28;20054;-76
2022/10/23 07:18:45;;;;;;;6.65;5.28;;;19.60;90.20;;;19.53;53.07;99120.88;5054507;28;20146;-76
2022/10/23 07:21:11;;;;;;;6.03;5.15;;;19.60;90.20;;;19.56;52.87;99120.22;5063281;28;20055;-76
2022/10/23 07:23:37;;;;;;;6.97;4.85;;;19.60;90.20;;;19.58;53.08;99117.94;5058492;28;20039;-76
2022/10/23 07:26:13;;;;;;;7.38;5.03;;;19.60;90.20;;;19.64;53.43;99119.41;5098735;27;20491;-76
2022/10/23 07:28:40;;;;;;;5.25;4.30;;;19.70;90.40;;;19.66;53.36;99110.81;5071023;28;20632;-76
2022/10/23 07:31:06;;;;;;;6.45;4.57;;;19.70;90.40;;;19.67;52.92;99118.78;5049200;28;20039;-76
2022/10/23 07:33:32;;;;;;;5.35;4.25;;;19.70;90.30;;;19.70;52.96;99118.13;5065366;28;20039;-76
2022/10/23 07:35:58;;;;;;;5.82;4.35;;;19.70;90.20;;;19.69;52.90;99122.03;5049147;28;20138;-76
2022/10/23 07:38:24;;;;;;;6.13;4.57;;;19.70;90.20;;;19.71;52.88;99127.19;5040003;28;20043;-76
2022/10/23 07:40:50;;;;;;;6.00;4.78;;;19.70;90.20;;;19.71;53.10;99130.75;5079665;28;20352;-76
2022/10/23 07:43:21;;;;;;;6.88;4.72;;;19.80;90.40;;;19.72;53.15;99128.81;5057913;28;20075;-76
2022/10/23 07:45:48;;;;;;;6.70;4.50;;;19.80;90.40;;;19.79;53.18;99136.56;5067701;28;20040;-76
2022/10/23 07:48:15;;;;;;;8.55;4.03;;;19.80;90.40;;;19.84;57.90;99123.44;5065557;28;20078;-76
2022/10/23 07:50:41;;;;;;;6.03;3.90;;;19.80;92.50;;;19.87;56.75;99131.06;5060906;28;20044;-77
2022/10/23 07:53:16;;;;;;;6.70;4.60;;;19.80;92.00;;;19.80;55.20;99139.00;5099230;27;20071;-76
2022/10/23 07:55:43;;;;;;;5.35;3.90;;;19.90;91.20;;;19.83;54.39;99137.53;5055815;28;20036;-75
2022/10/23 07:58:09;;;;;;;12.88;4.60;;;19.90;90.90;;;19.85;55.04;99127.81;5062361;28;20551;-75
2022/10/23 08:00:38;;;;;;;9.75;4.90;;;19.90;91.20;;;19.86;54.58;99123.13;5083433;28;20105;-75
2022/10/23 08:03:04;;;;;;;6.93;4.05;;;19.90;91.00;;;19.87;54.25;99116.47;5048512;28;20498;-77
2022/10/23 08:05:30;;;;;;;5.60;3.83;;;19.90;90.90;;;19.87;54.21;99110.97;5050629;28;20039;-77
2022/10/23 08:07:56;;;;;;;6.60;4.63;;;19.90;90.80;;;19.88;54.00;99110.63;5048915;28;20119;-77
2022/10/23 08:10:23;;;;;;;5.55;4.85;;;19.90;90.70;;;19.91;53.90;99107.22;5054701;28;20386;-79
2022/10/23 08:12:49;;;;;;;6.75;4.07;;;19.90;90.70;;;19.93;53.85;99110.47;5062526;28;20042;-75
2022/10/23 08:15:15;;;;;;;5.53;4.47;;;19.90;90.80;;;19.94;53.97;99105.75;5066736;28;20351;-75
2022/10/23 08:17:41;;;;;;;5.78;4.68;;;20.00;90.80;;;19.96;54.24;99111.75;5063371;28;20039;-75
2022/10/23 08:20:08;;;;;;;5.72;4.05;;;20.00;90.90;;;20.00;54.22;99117.41;5054476;28;20155;-75
2022/10/23 08:22:36;;;;;;;7.25;5.25;;;20.00;90.90;;;20.01;54.05;99116.28;5082309;28;20040;-75
2022/10/23 08:25:02;;;;;;;4.88;4.15;;;20.00;90.90;;;20.03;53.57;99130.53;5050390;28;20472;-75
2022/10/23 08:27:28;;;;;;;6.30;3.90;;;20.00;90.70;;;20.01;53.88;99127.28;5066303;28;20038;-75
2022/10/23 08:29:54;;;;;;;6.45;4.10;;;20.00;90.70;;;20.04;53.72;99121.94;5077164;28;20039;-75
2022/10/23 08:32:22;;;;;;;5.82;4.60;;;20.10;90.80;;;20.06;53.95;99119.66;5060554;28;20469;-75
2022/10/23 08:34:48;;;;;;;6.90;4.60;;;20.10;90.80;;;20.05;53.97;99118.06;5062689;28;20039;-75
2022/10/23 08:37:14;;;;;;;5.45;4.38;;;20.10;90.70;;;20.08;53.76;99120.16;5059077;28;20040;-75
2022/10/23 08:39:40;;;;;;;6.38;4.60;;;20.10;90.60;;;20.06;53.47;99116.91;5077320;28;20051;-74
2022/10/23 08:42:19;;;;;;;4.85;3.50;;;20.10;90.60;;;20.09;53.52;99123.69;5088092;28;20122;-74
2022/10/23 08:45:35;;;;;;;4.68;4.15;;;20.10;90.70;;;20.07;53.68;99126.78;5065890;28;20474;-74
2022/10/23 08:48:50;;;;;;;6.22;3.63;;;20.10;90.60;;;20.10;53.52;99134.41;5069083;28;20131;-78
2022/10/23 08:51:36;;;;;;;4.90;3.97;;;20.10;90.60;;;20.10;53.64;99141.84;5048955;27;20126;-78
2022/10/23 08:54:11;;;;;;;8.60;4.25;;;20.20;90.60;;;20.09;53.26;99130.00;5074219;27;20043;-78
2022/10/23 08:56:39;;;;;;;6.20;4.25;;;20.20;90.50;;;20.10;53.42;99128.09;5055697;27;20123;-78
2022/10/23 08:59:32;;;;;;;6.53;5.10;;;20.10;90.40;;;20.11;53.35;99126.94;5057879;28;20425;-77
2022/10/23 09:02:29;;;;;;;6.28;4.47;;;20.20;90.50;;;20.12;53.49;99129.38;5068284;27;20047;-78
2022/10/23 09:04:56;;;;;;;9.68;4.82;;;20.20;90.60;;;20.12;53.19;99134.06;5073434;28;20405;-78
2022/10/23 09:08:03;;;;;;;6.30;4.22;;;20.20;90.50;;;20.17;53.02;99136.63;5068511;28;20146;-77
2022/10/23 09:10:38;;;;;;;5.50;4.15;;;20.20;90.40;;;20.14;53.35;99138.09;5086693;28;20177;-77
2022/10/23 09:13:38;;;;;;;14.77;5.80;;;20.20;90.40;;;20.12;52.94;99131.28;5081730;28;20743;-78
2022/10/23 09:16:27;;;;;;;6.63;4.32;;;20.20;90.40;;;20.09;53.07;99121.75;5101899;28;20048;-78
2022/10/23 09:18:53;;;;;;;7.68;4.97;;;20.20;90.40;;;20.15;53.09;99128.72;5085791;28;20036;-78
2022/10/23 09:21:20;;;;;;;8.18;5.35;;;20.20;90.40;;;20.19;53.09;99134.34;5085598;28;20406;-78
2022/10/23 09:23:46;;;;;;;7.35;4.55;;;20.20;90.50;;;20.20;53.09;99136.00;5068099;28;20635;-78
2022/10/23 09:26:16;;;;;;;5.65;3.70;;;20.30;90.40;;;20.22;52.94;99136.44;5049234;28;20505;-78
2022/10/23 09:28:49;;;;;;;6.82;4.85;;;20.30;90.40;;;20.21;52.95;99139.56;5079063;28;20479;-78
2022/10/23 09:31:16;;;;;;;5.05;4.28;;;20.30;90.30;;;20.24;52.96;99136.13;5060448;28;20490;-78
2022/10/23 09:34:00;;;;;;;10.98;4.30;;;20.30;90.30;;;20.29;52.83;99130.44;5064568;28;20902;-78
2022/10/23 09:36:28;;;;;;;7.15;4.85;;;20.30;90.30;;;20.35;52.62;99132.69;5039093;28;20064;-78
2022/10/23 09:38:58;;;;;;;8.18;4.28;;;20.30;90.40;;;20.36;52.67;99134.28;5051640;28;20495;-78
2022/10/23 09:41:36;;;;;;;10.75;5.15;;;20.30;90.20;;;20.37;52.59;99132.34;5067089;28;20498;-78
2022/10/23 09:44:17;;;;;;;7.32;5.25;;;20.30;90.20;;;20.33;52.66;99125.91;5051376;28;20063;-78
2022/10/23 09:46:46;;;;;;;5.35;4.82;;;20.40;90.20;;;20.32;52.58;99133.31;5079158;28;20044;-78
2022/10/23 09:49:19;;;;;;;8.45;5.05;;;20.30;90.20;;;20.37;52.59;99130.38;5082170;28;20044;-78
2022/10/23 09:52:24;;;;;;;6.95;4.75;;;20.40;90.20;;;20.41;52.32;99122.28;5068965;28;20495;-78
2022/10/23 09:54:56;;;;;;;8.48;4.82;;;20.40;90.20;;;20.41;52.54;99118.72;5049160;28;20515;-78
2022/10/23 09:57:37;;;;;;;7.05;4.82;;;20.40;90.20;;;20.40;52.42;99123.41;5066452;28;20502;-78
2022/10/23 10:00:25;;;;;;;9.03;4.40;;;20.40;90.20;;;20.37;52.20;99122.13;5049783;28;20058;-78
2022/10/23 10:03:00;;;;;;;7.00;5.07;;;20.40;90.20;;;20.33;52.41;99123.13;5062317;28;20483;-78
2022/10/23 10:05:32;;;;;;;11.00;4.88;;;20.40;90.20;;;20.36;52.54;99117.78;5061090;28;20048;-78
2022/10/23 10:08:19;;;;;;;9.10;5.78;;;20.40;90.20;;;20.42;52.48;99120.34;5053420;27;20040;-78
2022/10/23 10:11:16;;;;;;;7.07;4.70;;;20.40;90.20;;;20.38;52.62;99121.00;5101866;27;20126;-78
2022/10/23 10:14:33;;;;;;;9.13;4.90;;;20.40;90.20;;;20.35;52.76;99132.69;5058410;27;20555;-78
2022/10/23 10:18:04;;;;;;;6.75;4.28;;;20.40;90.20;;;20.39;52.66;99110.78;5072032;27;20147;-78
2022/10/23 10:21:20;;;;;;;7.33;5.63;;;20.40;90.20;;;20.36;52.55;99116.97;5061157;27;20162;-78
2022/10/23 10:23:55;;;;;;;10.77;5.45;;;20.40;90.20;;;20.45;52.45;99117.72;5071067;27;20051;-78
2022/10/23 10:26:36;;;;;;;9.25;5.32;;;20.40;90.20;;;20.46;52.45;99116.59;5064445;27;20127;-78
2022/10/23 10:29:13;;;;;;;5.90;4.03;;;20.40;90.20;;;20.43;52.58;99108.16;5089672;27;20064;-78
2022/10/23 10:32:37;;;;;;;6.90;4.55;;;20.40;90.20;;;20.42;52.55;99095.53;5083248;28;20048;-78
2022/10/23 10:35:18;;;;;;;7.13;4.38;;;20.50;90.30;;;20.43;52.55;99092.47;5056393;27;20554;-78
2022/10/23 10:38:24;;;;;;;11.45;5.22;;;20.50;90.60;;;20.46;52.55;99102.81;5084445;27;20611;-78
2022/10/23 10:41:26;;;;;;;10.70;5.50;;;20.50;90.30;;;20.46;52.62;99096.50;5091849;28;20058;-78